sensor_id;sensor_type;location;lat;lon;timestamp;pressure;altitude;pressure_sealevel;temperature;humidity
63903;BME280;50072;50.678;13.938;2023-12-20T00:01:01;99166.56;;;4.65;100.00
63903;BME280;50072;50.678;13.938;2023-12-20T00:03:41;99169.22;;;4.64;100.00
63903;BME280;50072;50.678;13.938;2023-12-20T00:06:07;99177.16;;;4.67;100.00
63903;BME280;50072;50.678;13.938;2023-12-20T00:08:34;99169.28;;;4.59;100.00
63903;BME280;50072;50.678;13.938;2023-12-20T00:11:06;99166.63;;;4.59;100.00
63903;BME280;50072;50.678;13.938;2023-12-20T00:13:35;99170.13;;;4.61;100.00
63903;BME280;50072;50.678;13.938;2023-12-20T00:16:02;99171.97;;;4.53;100.00
63903;BME280;50072;50.678;13.938;2023-12-20T00:18:28;99159.53;;;4.61;100.00
63903;BME280;50072;50.678;13.938;2023-12-20T00:20:57;99150.72;;;4.59;100.00
63903;BME280;50072;50.678;13.938;2023-12-20T00:23:29;99147.19;;;4.60;100.00
63903;BME280;50072;50.678;13.938;2023-12-20T00:25:59;99133.94;;;4.57;100.00
63903;BME280;50072;50.678;13.938;2023-12-20T00:28:35;99126.88;;;4.61;100.00
63903;BME280;50072;50.678;13.938;2023-12-20T00:31:05;99112.75;;;4.57;100.00
63903;BME280;50072;50.678;13.938;2023-12-20T00:33:34;99118.97;;;4.52;100.00
63903;BME280;50072;50.678;13.938;2023-12-20T00:36:05;99115.44;;;4.54;100.00
63903;BME280;50072;50.678;13.938;2023-12-20T00:38:33;99119.88;;;4.52;100.00
63903;BME280;50072;50.678;13.938;2023-12-20T00:41:05;99118.97;;;4.55;100.00
63903;BME280;50072;50.678;13.938;2023-12-20T00:43:34;99117.16;;;4.58;100.00
63903;BME280;50072;50.678;13.938;2023-12-20T00:46:00;99113.66;;;4.56;100.00
63903;BME280;50072;50.678;13.938;2023-12-20T00:48:36;99119.84;;;4.57;100.00
63903;BME280;50072;50.678;13.938;2023-12-20T00:51:02;99124.28;;;4.55;100.00
63903;BME280;50072;50.678;13.938;2023-12-20T00:53:35;99111.91;;;4.54;100.00
63903;BME280;50072;50.678;13.938;2023-12-20T00:56:07;99113.66;;;4.56;100.00
63903;BME280;50072;50.678;13.938;2023-12-20T00:58:35;99119.81;;;4.58;100.00
63903;BME280;50072;50.678;13.938;2023-12-20T01:01:01;99103.88;;;4.61;100.00
63903;BME280;50072;50.678;13.938;2023-12-20T01:03:35;99101.28;;;4.55;100.00
63903;BME280;50072;50.678;13.938;2023-12-20T01:06:07;99093.38;;;4.54;100.00
63903;BME280;50072;50.678;13.938;2023-12-20T01:08:37;99084.56;;;4.48;100.00
63903;BME280;50072;50.678;13.938;2023-12-20T01:11:06;99079.41;;;4.36;100.00
63903;BME280;50072;50.678;13.938;2023-12-20T01:13:37;99077.69;;;4.32;100.00
63903;BME280;50072;50.678;13.938;2023-12-20T01:16:05;99057.50;;;4.17;100.00
63903;BME280;50072;50.678;13.938;2023-12-20T01:18:37;99061.94;;;4.15;100.00
63903;BME280;50072;50.678;13.938;2023-12-20T01:21:05;99060.19;;;4.11;100.00
63903;BME280;50072;50.678;13.938;2023-12-20T01:23:35;99062.84;;;4.11;100.00
63903;BME280;50072;50.678;13.938;2023-12-20T01:26:05;99053.13;;;4.11;100.00
63903;BME280;50072;50.678;13.938;2023-12-20T01:28:38;99055.81;;;4.07;100.00
63903;BME280;50072;50.678;13.938;2023-12-20T01:31:04;99039.94;;;4.07;100.00
63903;BME280;50072;50.678;13.938;2023-12-20T01:33:35;99050.44;;;4.16;100.00
63903;BME280;50072;50.678;13.938;2023-12-20T01:36:03;99039.84;;;4.18;100.00
63903;BME280;50072;50.678;13.938;2023-12-20T01:38:35;99035.38;;;4.23;100.00
63903;BME280;50072;50.678;13.938;2023-12-20T01:41:07;99048.53;;;4.29;100.00
63903;BME280;50072;50.678;13.938;2023-12-20T01:43:35;99058.25;;;4.31;100.00
63903;BME280;50072;50.678;13.938;2023-12-20T01:46:06;99059.13;;;4.32;100.00
63903;BME280;50072;50.678;13.938;2023-12-20T01:48:35;99055.56;;;4.35;100.00
63903;BME280;50072;50.678;13.938;2023-12-20T01:51:05;99055.59;;;4.31;100.00
63903;BME280;50072;50.678;13.938;2023-12-20T01:53:35;99060.00;;;4.34;100.00
63903;BME280;50072;50.678;13.938;2023-12-20T01:56:03;99046.75;;;4.32;100.00
63903;BME280;50072;50.678;13.938;2023-12-20T01:58:39;99055.56;;;4.38;100.00
63903;BME280;50072;50.678;13.938;2023-12-20T02:01:08;99051.97;;;4.39;100.00
63903;BME280;50072;50.678;13.938;2023-12-20T02:03:35;99055.50;;;4.41;100.00
63903;BME280;50072;50.678;13.938;2023-12-20T02:06:09;99049.31;;;4.43;100.00
63903;BME280;50072;50.678;13.938;2023-12-20T02:08:36;99035.19;;;4.41;100.00
63903;BME280;50072;50.678;13.938;2023-12-20T02:11:05;99037.78;;;4.44;100.00
63903;BME280;50072;50.678;13.938;2023-12-20T02:13:35;99029.75;;;4.55;100.00
63903;BME280;50072;50.678;13.938;2023-12-20T02:16:05;99035.94;;;4.53;100.00
63903;BME280;50072;50.678;13.938;2023-12-20T02:18:39;99030.66;;;4.51;100.00
63903;BME280;50072;50.678;13.938;2023-12-20T02:21:05;99024.53;;;4.46;100.00
63903;BME280;50072;50.678;13.938;2023-12-20T02:23:35;99021.00;;;4.45;100.00
63903;BME280;50072;50.678;13.938;2023-12-20T02:26:04;99011.28;;;4.46;100.00
63903;BME280;50072;50.678;13.938;2023-12-20T02:28:35;99029.78;;;4.52;100.00
63903;BME280;50072;50.678;13.938;2023-12-20T02:31:05;99028.88;;;4.56;100.00
63903;BME280;50072;50.678;13.938;2023-12-20T02:33:37;99022.66;;;4.56;100.00
63903;BME280;50072;50.678;13.938;2023-12-20T02:36:06;99031.53;;;4.55;100.00
63903;BME280;50072;50.678;13.938;2023-12-20T02:38:37;99027.09;;;4.55;100.00
63903;BME280;50072;50.678;13.938;2023-12-20T02:41:05;99021.00;;;4.45;100.00
63903;BME280;50072;50.678;13.938;2023-12-20T02:43:35;99015.81;;;4.38;100.00
63903;BME280;50072;50.678;13.938;2023-12-20T02:46:03;99023.75;;;4.35;100.00
63903;BME280;50072;50.678;13.938;2023-12-20T02:48:30;99012.34;;;4.31;100.00
63903;BME280;50072;50.678;13.938;2023-12-20T02:51:08;98994.56;;;4.41;100.00
63903;BME280;50072;50.678;13.938;2023-12-20T02:53:35;98997.28;;;4.38;100.00
63903;BME280;50072;50.678;13.938;2023-12-20T02:56:05;98997.38;;;4.25;100.00
63903;BME280;50072;50.678;13.938;2023-12-20T02:58:37;98991.97;;;4.35;100.00
63903;BME280;50072;50.678;13.938;2023-12-20T03:01:03;98993.69;;;4.39;100.00
63903;BME280;50072;50.678;13.938;2023-12-20T03:03:35;98991.13;;;4.32;100.00
63903;BME280;50072;50.678;13.938;2023-12-20T03:06:05;98994.72;;;4.27;100.00
63903;BME280;50072;50.678;13.938;2023-12-20T03:08:37;99003.50;;;4.29;100.00
63903;BME280;50072;50.678;13.938;2023-12-20T03:11:05;98994.72;;;4.27;100.00
63903;BME280;50072;50.678;13.938;2023-12-20T03:13:36;99007.03;;;4.31;100.00
63903;BME280;50072;50.678;13.938;2023-12-20T03:16:12;99002.69;;;4.25;100.00
63903;BME280;50072;50.678;13.938;2023-12-20T03:18:53;99006.28;;;4.18;100.00
63903;BME280;50072;50.678;13.938;2023-12-20T03:21:35;99013.25;;;4.28;100.00
63903;BME280;50072;50.678;13.938;2023-12-20T03:24:07;99004.34;;;4.34;100.00
63903;BME280;50072;50.678;13.938;2023-12-20T03:26:36;99007.03;;;4.31;100.00
63903;BME280;50072;50.678;13.938;2023-12-20T03:29:07;99010.50;;;4.39;100.00
63903;BME280;50072;50.678;13.938;2023-12-20T03:31:35;99007.81;;;4.41;100.00
63903;BME280;50072;50.678;13.938;2023-12-20T03:34:07;99004.28;;;4.43;100.00
63903;BME280;50072;50.678;13.938;2023-12-20T03:36:35;99003.38;;;4.43;100.00
63903;BME280;50072;50.678;13.938;2023-12-20T03:39:07;98999.00;;;4.42;100.00
63903;BME280;50072;50.678;13.938;2023-12-20T03:41:35;98999.00;;;4.42;100.00
63903;BME280;50072;50.678;13.938;2023-12-20T03:44:05;99001.63;;;4.42;100.00
63903;BME280;50072;50.678;13.938;2023-12-20T03:46:35;99003.44;;;4.38;100.00
63903;BME280;50072;50.678;13.938;2023-12-20T03:49:05;98993.72;;;4.37;100.00
63903;BME280;50072;50.678;13.938;2023-12-20T03:51:35;98984.03;;;4.33;100.00
63903;BME280;50072;50.678;13.938;2023-12-20T03:54:05;98997.28;;;4.38;100.00
63903;BME280;50072;50.678;13.938;2023-12-20T03:56:38;98993.72;;;4.37;100.00
63903;BME280;50072;50.678;13.938;2023-12-20T03:59:05;98998.22;;;4.30;100.00
63903;BME280;50072;50.678;13.938;2023-12-20T04:01:31;99003.53;;;4.27;100.00
63903;BME280;50072;50.678;13.938;2023-12-20T04:04:05;99002.69;;;4.25;100.00
63903;BME280;50072;50.678;13.938;2023-12-20T04:06:37;99002.69;;;4.25;100.00
63903;BME280;50072;50.678;13.938;2023-12-20T04:09:05;99007.03;;;4.31;100.00
63903;BME280;50072;50.678;13.938;2023-12-20T04:11:36;99012.31;;;4.34;100.00
63903;BME280;50072;50.678;13.938;2023-12-20T04:14:05;99022.06;;;4.32;100.00
63903;BME280;50072;50.678;13.938;2023-12-20T04:16:35;99027.34;;;4.34;100.00
63903;BME280;50072;50.678;13.938;2023-12-20T04:19:07;99013.28;;;4.25;100.00
63903;BME280;50072;50.678;13.938;2023-12-20T04:21:38;99029.13;;;4.28;100.00
63903;BME280;50072;50.678;13.938;2023-12-20T04:24:06;99010.59;;;4.28;100.00
63903;BME280;50072;50.678;13.938;2023-12-20T04:26:35;99013.31;;;4.22;100.00
63903;BME280;50072;50.678;13.938;2023-12-20T04:29:07;99005.34;;;4.25;100.00
63903;BME280;50072;50.678;13.938;2023-12-20T04:31:35;99004.41;;;4.29;100.00
63903;BME280;50072;50.678;13.938;2023-12-20T04:34:08;99007.00;;;4.34;100.00
63903;BME280;50072;50.678;13.938;2023-12-20T04:36:35;99005.28;;;4.30;100.00
63903;BME280;50072;50.678;13.938;2023-12-20T04:39:07;99012.31;;;4.34;100.00
63903;BME280;50072;50.678;13.938;2023-12-20T04:41:35;98996.50;;;4.26;100.00
63903;BME280;50072;50.678;13.938;2023-12-20T04:44:05;99007.06;;;4.29;100.00
63903;BME280;50072;50.678;13.938;2023-12-20T04:46:35;99006.19;;;4.27;100.00
63903;BME280;50072;50.678;13.938;2023-12-20T04:49:06;99007.88;;;4.38;100.00
63903;BME280;50072;50.678;13.938;2023-12-20T04:51:35;99011.34;;;4.40;100.00
63903;BME280;50072;50.678;13.938;2023-12-20T04:54:07;99007.84;;;4.39;100.00
63903;BME280;50072;50.678;13.938;2023-12-20T04:56:35;99006.19;;;4.30;100.00
63903;BME280;50072;50.678;13.938;2023-12-20T04:59:05;99012.31;;;4.32;100.00
63903;BME280;50072;50.678;13.938;2023-12-20T05:01:31;99002.72;;;4.22;100.00
63903;BME280;50072;50.678;13.938;2023-12-20T05:03:58;99007.09;;;4.26;100.00
63903;BME280;50072;50.678;13.938;2023-12-20T05:06:24;99004.47;;;4.22;100.00
63903;BME280;50072;50.678;13.938;2023-12-20T05:09:05;99003.56;;;4.24;100.00
63903;BME280;50072;50.678;13.938;2023-12-20T05:11:33;98998.22;;;4.27;100.00
63903;BME280;50072;50.678;13.938;2023-12-20T05:13:58;99004.47;;;4.25;100.00
63903;BME280;50072;50.678;13.938;2023-12-20T05:16:25;99013.19;;;4.31;100.00
63903;BME280;50072;50.678;13.938;2023-12-20T05:18:52;99015.94;;;4.24;100.00
63903;BME280;50072;50.678;13.938;2023-12-20T05:21:20;99009.75;;;4.26;100.00
63903;BME280;50072;50.678;13.938;2023-12-20T05:23:47;99004.50;;;4.20;100.00
63903;BME280;50072;50.678;13.938;2023-12-20T05:26:13;99018.56;;;4.25;100.00
63903;BME280;50072;50.678;13.938;2023-12-20T05:28:39;99027.41;;;4.24;100.00
63903;BME280;50072;50.678;13.938;2023-12-20T05:31:06;99032.75;;;4.21;100.00
63903;BME280;50072;50.678;13.938;2023-12-20T05:33:33;99024.75;;;4.24;100.00
63903;BME280;50072;50.678;13.938;2023-12-20T05:36:00;99016.88;;;4.18;100.00
63903;BME280;50072;50.678;13.938;2023-12-20T05:38:27;99030.94;;;4.26;100.00
63903;BME280;50072;50.678;13.938;2023-12-20T05:40:53;99034.50;;;4.22;100.00
63903;BME280;50072;50.678;13.938;2023-12-20T05:43:20;99026.59;;;4.18;100.00
63903;BME280;50072;50.678;13.938;2023-12-20T05:45:48;99031.84;;;4.22;100.00
63903;BME280;50072;50.678;13.938;2023-12-20T05:48:16;99029.16;;;4.25;100.00
63903;BME280;50072;50.678;13.938;2023-12-20T05:50:43;99030.97;;;4.23;100.00
63903;BME280;50072;50.678;13.938;2023-12-20T05:53:09;99031.75;;;4.30;100.00
63903;BME280;50072;50.678;13.938;2023-12-20T05:55:36;99024.66;;;4.37;100.00
63903;BME280;50072;50.678;13.938;2023-12-20T05:58:03;99037.94;;;4.34;100.00
63903;BME280;50072;50.678;13.938;2023-12-20T06:00:30;99042.34;;;4.30;100.00
63903;BME280;50072;50.678;13.938;2023-12-20T06:02:57;99039.69;;;4.33;100.00
63903;BME280;50072;50.678;13.938;2023-12-20T06:05:26;99042.31;;;4.33;100.00
63903;BME280;50072;50.678;13.938;2023-12-20T06:07:52;99036.16;;;4.34;100.00
63903;BME280;50072;50.678;13.938;2023-12-20T06:10:19;99036.09;;;4.37;100.00
63903;BME280;50072;50.678;13.938;2023-12-20T06:12:44;99044.81;;;4.50;100.00
63903;BME280;50072;50.678;13.938;2023-12-20T06:15:13;99045.69;;;4.52;100.00
63903;BME280;50072;50.678;13.938;2023-12-20T06:17:39;99043.16;;;4.40;100.00
63903;BME280;50072;50.678;13.938;2023-12-20T06:20:07;99051.97;;;4.40;100.00
63903;BME280;50072;50.678;13.938;2023-12-20T06:22:35;99056.38;;;4.43;100.00
63903;BME280;50072;50.678;13.938;2023-12-20T06:25:02;99053.72;;;4.41;100.00
63903;BME280;50072;50.678;13.938;2023-12-20T06:27:29;99055.44;;;4.47;100.00
63903;BME280;50072;50.678;13.938;2023-12-20T06:30:05;99071.25;;;4.56;100.00
63903;BME280;50072;50.678;13.938;2023-12-20T06:32:32;99070.41;;;4.51;100.00
63903;BME280;50072;50.678;13.938;2023-12-20T06:35:00;99050.97;;;4.52;100.00
63903;BME280;50072;50.678;13.938;2023-12-20T06:37:36;99072.16;;;4.54;100.00
63903;BME280;50072;50.678;13.938;2023-12-20T06:40:03;99069.50;;;4.55;100.00
63903;BME280;50072;50.678;13.938;2023-12-20T06:42:35;99069.41;;;4.61;100.00
63903;BME280;50072;50.678;13.938;2023-12-20T06:45:08;99065.94;;;4.59;100.00
63903;BME280;50072;50.678;13.938;2023-12-20T06:47:35;99076.50;;;4.62;100.00
63903;BME280;50072;50.678;13.938;2023-12-20T06:50:07;99075.69;;;4.54;100.00
63903;BME280;50072;50.678;13.938;2023-12-20T06:52:35;99074.88;;;4.46;100.00
63903;BME280;50072;50.678;13.938;2023-12-20T06:55:03;99080.22;;;4.43;100.00
63903;BME280;50072;50.678;13.938;2023-12-20T06:57:35;99083.78;;;4.39;100.00
63903;BME280;50072;50.678;13.938;2023-12-20T07:00:07;99091.72;;;4.43;100.00
63903;BME280;50072;50.678;13.938;2023-12-20T07:02:35;99091.72;;;4.40;100.00
63903;BME280;50072;50.678;13.938;2023-12-20T07:05:05;99097.03;;;4.42;100.00
63903;BME280;50072;50.678;13.938;2023-12-20T07:07:37;99103.22;;;4.41;100.00
63903;BME280;50072;50.678;13.938;2023-12-20T07:10:04;99101.41;;;4.43;100.00
63903;BME280;50072;50.678;13.938;2023-12-20T07:12:35;99107.56;;;4.48;100.00
63903;BME280;50072;50.678;13.938;2023-12-20T07:15:05;99117.28;;;4.46;100.00
63903;BME280;50072;50.678;13.938;2023-12-20T07:17:34;99107.50;;;4.53;100.00
63903;BME280;50072;50.678;13.938;2023-12-20T07:20:06;99112.75;;;4.56;100.00
63903;BME280;50072;50.678;13.938;2023-12-20T07:22:36;99119.84;;;4.55;100.00
63903;BME280;50072;50.678;13.938;2023-12-20T07:25:05;99125.97;;;4.59;100.00
63903;BME280;50072;50.678;13.938;2023-12-20T07:27:38;99129.53;;;4.59;100.00
63903;BME280;50072;50.678;13.938;2023-12-20T07:30:06;99117.19;;;4.55;100.00
63903;BME280;50072;50.678;13.938;2023-12-20T07:32:35;99134.88;;;4.53;100.00
63903;BME280;50072;50.678;13.938;2023-12-20T07:35:06;99125.97;;;4.63;100.00
63903;BME280;50072;50.678;13.938;2023-12-20T07:37:32;99124.13;;;4.69;100.00
63903;BME280;50072;50.678;13.938;2023-12-20T07:39:59;99130.28;;;4.72;100.00
63903;BME280;50072;50.678;13.938;2023-12-20T07:42:35;99129.38;;;4.75;100.00
63903;BME280;50072;50.678;13.938;2023-12-20T07:45:07;99129.19;;;4.90;100.00
63903;BME280;50072;50.678;13.938;2023-12-20T07:47:35;99135.38;;;4.92;100.00
63903;BME280;50072;50.678;13.938;2023-12-20T07:50:07;99146.88;;;4.91;100.00
63903;BME280;50072;50.678;13.938;2023-12-20T07:52:35;99150.38;;;4.96;100.00
63903;BME280;50072;50.678;13.938;2023-12-20T07:55:06;99145.06;;;4.96;100.00
63903;BME280;50072;50.678;13.938;2023-12-20T07:57:35;99153.84;;;5.00;100.00
63903;BME280;50072;50.678;13.938;2023-12-20T08:00:05;99142.25;;;5.09;100.00
63903;BME280;50072;50.678;13.938;2023-12-20T08:02:38;99139.59;;;5.10;100.00
63903;BME280;50072;50.678;13.938;2023-12-20T08:05:05;99149.31;;;5.11;100.00
63903;BME280;50072;50.678;13.938;2023-12-20T08:07:38;99140.44;;;5.14;100.00
63903;BME280;50072;50.678;13.938;2023-12-20T08:10:05;99131.56;;;5.16;100.00
63903;BME280;50072;50.678;13.938;2023-12-20T08:12:35;99143.97;;;5.13;100.00
63903;BME280;50072;50.678;13.938;2023-12-20T08:15:06;99151.00;;;5.17;100.00
63903;BME280;50072;50.678;13.938;2023-12-20T08:17:35;99150.13;;;5.18;100.00
63903;BME280;50072;50.678;13.938;2023-12-20T08:20:07;99154.53;;;5.21;100.00
63903;BME280;50072;50.678;13.938;2023-12-20T08:22:38;99154.47;;;5.24;100.00
63903;BME280;50072;50.678;13.938;2023-12-20T08:25:05;99143.84;;;5.25;100.00
63903;BME280;50072;50.678;13.938;2023-12-20T08:27:41;99139.38;;;5.30;100.00
63903;BME280;50072;50.678;13.938;2023-12-20T08:30:25;99143.78;;;5.30;100.00
63903;BME280;50072;50.678;13.938;2023-12-20T08:33:00;99144.63;;;5.33;100.00
63903;BME280;50072;50.678;13.938;2023-12-20T08:35:32;99142.03;;;5.30;100.00
63903;BME280;50072;50.678;13.938;2023-12-20T08:38:05;99149.00;;;5.39;100.00
63903;BME280;50072;50.678;13.938;2023-12-20T08:40:38;99140.88;;;5.50;100.00
63903;BME280;50072;50.678;13.938;2023-12-20T08:43:04;99145.31;;;5.49;100.00
63903;BME280;50072;50.678;13.938;2023-12-20T08:45:38;99140.81;;;5.56;100.00
63903;BME280;50072;50.678;13.938;2023-12-20T08:48:05;99141.59;;;5.63;100.00
63903;BME280;50072;50.678;13.938;2023-12-20T08:50:35;99144.19;;;5.67;100.00
63903;BME280;50072;50.678;13.938;2023-12-20T08:53:02;99154.69;;;5.75;100.00
63903;BME280;50072;50.678;13.938;2023-12-20T08:55:28;99162.38;;;5.98;100.00
63903;BME280;50072;50.678;13.938;2023-12-20T08:57:55;99155.75;;;6.27;100.00
63903;BME280;50072;50.678;13.938;2023-12-20T09:00:23;99150.28;;;6.36;100.00
63903;BME280;50072;50.678;13.938;2023-12-20T09:02:54;99146.66;;;6.41;100.00
63903;BME280;50072;50.678;13.938;2023-12-20T09:05:23;99162.56;;;6.44;100.00
63903;BME280;50072;50.678;13.938;2023-12-20T09:07:49;99162.25;;;6.62;100.00
63903;BME280;50072;50.678;13.938;2023-12-20T09:10:17;99165.59;;;6.73;100.00
63903;BME280;50072;50.678;13.938;2023-12-20T09:12:51;99162.06;;;6.74;100.00
63903;BME280;50072;50.678;13.938;2023-12-20T09:15:18;99165.53;;;6.77;100.00
63903;BME280;50072;50.678;13.938;2023-12-20T09:17:45;99166.09;;;6.46;100.00
63903;BME280;50072;50.678;13.938;2023-12-20T09:20:13;99169.44;;;6.55;100.00
63903;BME280;50072;50.678;13.938;2023-12-20T09:22:40;99169.44;;;6.55;100.00
63903;BME280;50072;50.678;13.938;2023-12-20T09:25:09;99169.41;;;6.60;100.00
63903;BME280;50072;50.678;13.938;2023-12-20T09:27:37;99165.91;;;6.56;100.00
63903;BME280;50072;50.678;13.938;2023-12-20T09:30:05;99150.97;;;6.48;100.00
63903;BME280;50072;50.678;13.938;2023-12-20T09:32:32;99157.88;;;6.58;100.00
63903;BME280;50072;50.678;13.938;2023-12-20T09:35:01;99160.59;;;6.55;100.00
63903;BME280;50072;50.678;13.938;2023-12-20T09:37:28;99153.63;;;6.48;100.00
63903;BME280;50072;50.678;13.938;2023-12-20T09:39:55;99155.53;;;6.39;100.00
63903;BME280;50072;50.678;13.938;2023-12-20T09:42:48;99165.44;;;6.30;100.00
63903;BME280;50072;50.678;13.938;2023-12-20T09:45:20;99179.72;;;6.22;100.00
63903;BME280;50072;50.678;13.938;2023-12-20T09:48:07;99175.38;;;6.17;100.00
63903;BME280;50072;50.678;13.938;2023-12-20T09:50:36;99166.63;;;6.12;100.00
63903;BME280;50072;50.678;13.938;2023-12-20T09:53:02;99159.53;;;6.11;100.00
63903;BME280;50072;50.678;13.938;2023-12-20T09:55:36;99141.88;;;6.07;100.00
63903;BME280;50072;50.678;13.938;2023-12-20T09:58:02;99161.22;;;6.16;100.00
63903;BME280;50072;50.678;13.938;2023-12-20T10:00:29;99151.50;;;6.15;100.00
63903;BME280;50072;50.678;13.938;2023-12-20T10:03:06;99164.91;;;6.08;100.00
63903;BME280;50072;50.678;13.938;2023-12-20T10:05:35;99160.44;;;6.10;100.00
63903;BME280;50072;50.678;13.938;2023-12-20T10:08:07;99158.75;;;6.04;100.00
63903;BME280;50072;50.678;13.938;2023-12-20T10:10:32;99159.66;;;6.03;100.00
63903;BME280;50072;50.678;13.938;2023-12-20T10:13:06;99152.47;;;6.10;100.00
63903;BME280;50072;50.678;13.938;2023-12-20T10:15:38;99154.19;;;6.14;100.00
63903;BME280;50072;50.678;13.938;2023-12-20T10:18:05;99152.03;;;6.37;100.00
63903;BME280;50072;50.678;13.938;2023-12-20T10:20:37;99145.69;;;6.46;100.00
63903;BME280;50072;50.678;13.938;2023-12-20T10:23:05;99141.81;;;6.66;100.00
63903;BME280;50072;50.678;13.938;2023-12-20T10:25:37;99134.34;;;6.86;100.00
63903;BME280;50072;50.678;13.938;2023-12-20T10:28:16;99150.13;;;6.97;100.00
63903;BME280;50072;50.678;13.938;2023-12-20T10:31:05;99143.72;;;7.07;100.00
63903;BME280;50072;50.678;13.938;2023-12-20T10:33:35;99134.09;;;7.46;100.00
63903;BME280;50072;50.678;13.938;2023-12-20T10:36:06;99121.22;;;8.05;100.00
63903;BME280;50072;50.678;13.938;2023-12-20T10:38:35;99120.00;;;8.19;100.00
63903;BME280;50072;50.678;13.938;2023-12-20T10:41:05;99119.06;;;8.21;100.00
63903;BME280;50072;50.678;13.938;2023-12-20T10:43:36;99108.25;;;7.90;100.00
63903;BME280;50072;50.678;13.938;2023-12-20T10:46:05;99111.56;;;7.60;100.00
63903;BME280;50072;50.678;13.938;2023-12-20T10:48:39;99101.59;;;7.28;100.00
63903;BME280;50072;50.678;13.938;2023-12-20T10:51:06;99096.72;;;7.06;100.00
63903;BME280;50072;50.678;13.938;2023-12-20T10:53:39;99094.88;;;7.91;100.00
63903;BME280;50072;50.678;13.938;2023-12-20T10:56:35;99097.03;;;8.49;100.00
63903;BME280;50072;50.678;13.938;2023-12-20T10:59:07;99086.97;;;8.24;100.00
63903;BME280;50072;50.678;13.938;2023-12-20T11:01:38;99092.03;;;7.99;100.00
63903;BME280;50072;50.678;13.938;2023-12-20T11:04:09;99083.75;;;7.72;100.00
63903;BME280;50072;50.678;13.938;2023-12-20T11:06:58;99083.16;;;7.61;100.00
63903;BME280;50072;50.678;13.938;2023-12-20T11:09:33;99076.06;;;8.35;100.00
63903;BME280;50072;50.678;13.938;2023-12-20T11:15:06;99049.69;;;10.08;73.64
63903;BME280;50072;50.678;13.938;2023-12-20T11:17:35;99032.00;;;10.58;69.12
63903;BME280;50072;50.678;13.938;2023-12-20T11:20:07;99032.88;;;11.31;67.59
63903;BME280;50072;50.678;13.938;2023-12-20T11:22:36;99023.44;;;11.90;63.01
63903;BME280;50072;50.678;13.938;2023-12-20T11:25:10;99013.53;;;12.76;59.82
63903;BME280;50072;50.678;13.938;2023-12-20T11:28:07;99027.38;;;12.46;59.57
63903;BME280;50072;50.678;13.938;2023-12-20T11:31:05;99024.03;;;11.05;64.05
63903;BME280;50072;50.678;13.938;2023-12-20T11:33:37;99028.97;;;9.60;66.79
63903;BME280;50072;50.678;13.938;2023-12-20T11:36:13;99038.50;;;9.09;70.69
63903;BME280;50072;50.678;13.938;2023-12-20T11:38:53;99043.38;;;8.61;71.87
63903;BME280;50072;50.678;13.938;2023-12-20T11:41:22;99041.19;;;8.44;73.27
63903;BME280;50072;50.678;13.938;2023-12-20T11:43:55;99036.50;;;8.18;73.43
63903;BME280;50072;50.678;13.938;2023-12-20T11:46:22;99030.22;;;8.19;74.12
63903;BME280;50072;50.678;13.938;2023-12-20T11:48:50;99009.38;;;8.01;72.62
63903;BME280;50072;50.678;13.938;2023-12-20T11:51:16;99015.13;;;8.20;74.83
63903;BME280;50072;50.678;13.938;2023-12-20T11:53:42;99007.22;;;8.15;74.45
63903;BME280;50072;50.678;13.938;2023-12-20T11:56:08;98995.53;;;8.21;75.74
63903;BME280;50072;50.678;13.938;2023-12-20T11:58:35;98998.84;;;8.30;75.78
63903;BME280;50072;50.678;13.938;2023-12-20T12:01:01;99011.63;;;8.18;74.12
63903;BME280;50072;50.678;13.938;2023-12-20T12:03:30;98999.34;;;7.76;74.90
63903;BME280;50072;50.678;13.938;2023-12-20T12:05:57;99003.25;;;7.61;75.96
63903;BME280;50072;50.678;13.938;2023-12-20T12:08:22;98997.28;;;7.51;75.93
63903;BME280;50072;50.678;13.938;2023-12-20T12:10:49;99005.38;;;7.45;75.67
63903;BME280;50072;50.678;13.938;2023-12-20T12:13:15;98997.63;;;7.36;76.92
63903;BME280;50072;50.678;13.938;2023-12-20T12:15:42;99003.66;;;7.44;76.08
63903;BME280;50072;50.678;13.938;2023-12-20T12:18:36;99006.44;;;7.38;76.87
63903;BME280;50072;50.678;13.938;2023-12-20T12:21:08;99000.75;;;7.16;77.32
63903;BME280;50072;50.678;13.938;2023-12-20T12:23:35;98992.28;;;6.95;77.63
63903;BME280;50072;50.678;13.938;2023-12-20T12:26:06;98994.25;;;6.87;77.95
63903;BME280;50072;50.678;13.938;2023-12-20T12:28:40;98977.66;;;6.74;77.92
63903;BME280;50072;50.678;13.938;2023-12-20T12:31:06;98975.81;;;6.78;78.11
63903;BME280;50072;50.678;13.938;2023-12-20T12:33:36;98968.88;;;6.70;77.78
63903;BME280;50072;50.678;13.938;2023-12-20T12:36:01;98971.44;;;6.75;78.58
63903;BME280;50072;50.678;13.938;2023-12-20T12:38:30;98974.94;;;6.79;78.32
63903;BME280;50072;50.678;13.938;2023-12-20T12:40:57;98975.69;;;6.84;78.56
63903;BME280;50072;50.678;13.938;2023-12-20T12:43:27;98968.28;;;6.98;79.26
63903;BME280;50072;50.678;13.938;2023-12-20T12:45:54;98978.59;;;7.14;78.06
63903;BME280;50072;50.678;13.938;2023-12-20T12:48:23;98959.00;;;7.18;77.68
63903;BME280;50072;50.678;13.938;2023-12-20T12:50:49;98957.47;;;7.45;76.67
63903;BME280;50072;50.678;13.938;2023-12-20T12:53:17;98960.31;;;7.37;75.50
63903;BME280;50072;50.678;13.938;2023-12-20T12:55:45;98968.50;;;7.28;76.33
63903;BME280;50072;50.678;13.938;2023-12-20T12:58:13;98955.16;;;7.31;75.80
63903;BME280;50072;50.678;13.938;2023-12-20T13:00:40;98965.06;;;7.24;76.83
63903;BME280;50072;50.678;13.938;2023-12-20T13:03:06;98962.69;;;7.11;77.07
63903;BME280;50072;50.678;13.938;2023-12-20T13:05:35;98976.22;;;7.01;77.06
63903;BME280;50072;50.678;13.938;2023-12-20T13:08:01;98963.97;;;6.93;77.97